createdAt,value
2024-04-06T00:00:03.931Z,98433.42
2024-04-06T00:02:35.892Z,98432.03
2024-04-06T00:05:10.565Z,98430.64
2024-04-06T00:07:42.660Z,98432.90
2024-04-06T00:10:13.701Z,98430.64
2024-04-06T00:12:45.090Z,98431.67
2024-04-06T00:15:16.699Z,98429.78
2024-04-06T00:17:48.234Z,98430.98
2024-04-06T00:20:19.407Z,98432.73
2024-04-06T00:22:50.636Z,98434.10
2024-04-06T00:25:21.975Z,98433.06
2024-04-06T00:27:53.380Z,98432.70
2024-04-06T00:30:24.734Z,98440.33
2024-04-06T00:32:56.348Z,98442.23
2024-04-06T00:35:27.685Z,98443.27
2024-04-06T00:37:58.856Z,98446.56
2024-04-06T00:40:30.084Z,98445.52
2024-04-06T00:43:01.804Z,98449.33
2024-04-06T00:45:33.009Z,98452.27
2024-04-06T00:48:04.464Z,98452.95
2024-04-06T00:50:36.506Z,98455.39
2024-04-06T00:53:07.828Z,98458.33
2024-04-06T00:55:39.589Z,98460.92
2024-04-06T00:58:11.528Z,98459.89
2024-04-06T01:00:42.643Z,98463.70
2024-04-06T01:03:13.855Z,98460.92
2024-04-06T01:05:45.521Z,98464.05
2024-04-06T01:08:17.914Z,98459.55
2024-04-06T01:10:49.138Z,98458.50
2024-04-06T01:13:20.278Z,98459.36
2024-04-06T01:15:51.703Z,98463.36
2024-04-06T01:18:23.002Z,98459.53
2024-04-06T01:20:55.419Z,98458.15
2024-04-06T01:23:27.365Z,98456.77
2024-04-06T01:25:58.502Z,98460.40
2024-04-06T01:28:30.340Z,98463.34
2024-04-06T01:31:01.682Z,98462.83
2024-04-06T01:33:32.866Z,98455.70
2024-04-06T01:36:04.327Z,98448.44
2024-04-06T01:38:35.572Z,98451.38
2024-04-06T01:41:07.263Z,98448.26
2024-04-06T01:43:38.456Z,98449.83
2024-04-06T01:46:10.330Z,98443.60
2024-04-06T01:48:41.899Z,98444.27
2024-04-06T01:51:13.204Z,98446.52
2024-04-06T01:53:44.362Z,98448.09
2024-04-06T01:56:15.627Z,98448.77
2024-04-06T01:58:50.372Z,98450.15
2024-04-06T02:01:21.648Z,98444.09
2024-04-06T02:03:52.811Z,98445.81
2024-04-06T02:06:24.439Z,98445.99
2024-04-06T02:08:55.832Z,98444.77
2024-04-06T02:11:27.297Z,98448.73
2024-04-06T02:13:58.426Z,98449.60
2024-04-06T02:16:30.058Z,98450.81
2024-04-06T02:19:01.239Z,98456.16
2024-04-06T02:21:32.651Z,98454.59
2024-04-06T02:24:05.487Z,98458.57
2024-04-06T02:26:37.340Z,98461.87
2024-04-06T02:29:08.272Z,98464.98
2024-04-06T02:31:39.340Z,98472.25
2024-04-06T02:34:10.940Z,98472.06
2024-04-06T02:36:42.295Z,98475.00
2024-04-06T02:39:14.056Z,98477.95
2024-04-06T02:41:45.046Z,98474.33
2024-04-06T02:44:16.136Z,98478.11
2024-04-06T02:46:47.235Z,98473.44
2024-04-06T02:49:18.180Z,98478.09
2024-04-06T02:51:49.177Z,98488.14
2024-04-06T02:54:20.281Z,98484.48
2024-04-06T02:56:51.221Z,98479.46
2024-04-06T02:59:22.840Z,98478.25
2024-04-06T03:01:54.224Z,98468.36
2024-04-06T03:04:26.621Z,98473.90
2024-04-06T03:06:57.708Z,98468.69
2024-04-06T03:09:30.336Z,98471.64
2024-04-06T03:12:01.429Z,98465.91
2024-04-06T03:14:33.104Z,98471.96
2024-04-06T03:17:04.867Z,98480.08
2024-04-06T03:19:36.234Z,98481.27
2024-04-06T03:22:08.649Z,98483.34
2024-04-06T03:24:40.038Z,98490.94
2024-04-06T03:27:11.320Z,98494.56
2024-04-06T03:29:42.558Z,98502.84
2024-04-06T03:32:13.652Z,98505.92
2024-04-06T03:34:45.408Z,98503.33
2024-04-06T03:37:16.855Z,98511.80
2024-04-06T03:39:49.739Z,98511.80
2024-04-06T03:42:20.668Z,98508.70
2024-04-06T03:44:52.305Z,98506.29
2024-04-06T03:47:23.617Z,98506.49
2024-04-06T03:49:54.908Z,98506.67
2024-04-06T03:52:26.065Z,98511.86
2024-04-06T03:54:57.627Z,98514.80
2024-04-06T03:57:28.802Z,98516.54
2024-04-06T04:00:00.783Z,98518.95
2024-04-06T04:02:32.825Z,98521.16
2024-04-06T04:05:04.279Z,98524.95
2024-04-06T04:07:36.689Z,98526.98
2024-04-06T04:10:09.649Z,98525.08
2024-04-06T04:12:40.751Z,98521.63
2024-04-06T04:15:12.639Z,98522.14
2024-04-06T04:17:43.929Z,98520.02
2024-04-06T04:20:15.265Z,98510.84
2024-04-06T04:22:46.373Z,98511.00
2024-04-06T04:25:17.874Z,98513.42
2024-04-06T04:27:49.109Z,98516.69
2024-04-06T04:30:20.743Z,98518.23
2024-04-06T04:32:52.461Z,98513.52
2024-04-06T04:35:23.676Z,98511.94
2024-04-06T04:37:55.423Z,98513.29
2024-04-06T04:40:26.733Z,98519.33
2024-04-06T04:42:58.002Z,98524.50
2024-04-06T04:45:29.748Z,98521.90
2024-04-06T04:48:01.118Z,98525.86
2024-04-06T04:50:32.723Z,98522.21
2024-04-06T04:53:04.094Z,98514.77
2024-04-06T04:55:35.341Z,98509.56
2024-04-06T04:58:07.192Z,98507.66
2024-04-06T05:00:38.875Z,98504.00
2024-04-06T05:03:10.319Z,98511.75
2024-04-06T05:05:41.756Z,98514.69
2024-04-06T05:08:13.788Z,98511.89
2024-04-06T05:10:47.532Z,98518.96
2024-04-06T05:13:18.756Z,98522.73
2024-04-06T05:15:54.186Z,98520.61
2024-04-06T05:18:25.786Z,98518.64
2024-04-06T05:20:58.282Z,98524.64
2024-04-06T05:23:29.680Z,98528.23
2024-04-06T05:26:01.729Z,98523.00
2024-04-06T05:28:33.450Z,98516.08
2024-04-06T05:31:05.240Z,98518.30
2024-04-06T05:33:37.156Z,98519.15
2024-04-06T05:36:09.892Z,98523.45
2024-04-06T05:38:41.289Z,98528.63
2024-04-06T05:41:13.090Z,98531.03
2024-04-06T05:43:44.414Z,98526.36
2024-04-06T05:46:15.994Z,98526.19
2024-04-06T05:48:47.290Z,98532.23
2024-04-06T05:51:19.287Z,98541.38
2024-04-06T05:53:50.693Z,98544.83
2024-04-06T05:56:21.991Z,98549.70
2024-04-06T05:58:53.330Z,98544.69
2024-04-06T06:01:24.854Z,98545.75
2024-04-06T06:03:56.144Z,98540.77
2024-04-06T06:06:27.372Z,98534.24
2024-04-06T06:08:58.492Z,98534.46
2024-04-06T06:11:29.714Z,98532.44
2024-04-06T06:14:01.341Z,98532.50
2024-04-06T06:16:33.053Z,98528.78
2024-04-06T06:19:04.218Z,98529.20
2024-04-06T06:21:35.642Z,98528.24
2024-04-06T06:24:07.955Z,98525.22
2024-04-06T06:26:39.171Z,98524.96
2024-04-06T06:29:10.241Z,98527.11
2024-04-06T06:31:41.731Z,98528.55
2024-04-06T06:34:12.879Z,98533.13
2024-04-06T06:41:54.674Z,98545.73
2024-04-06T06:44:25.854Z,98540.73
2024-04-06T06:46:57.039Z,98544.94
2024-04-06T06:49:28.402Z,98551.19
2024-04-06T06:52:00.044Z,98559.72
2024-04-06T06:54:31.167Z,98570.85
2024-04-06T06:57:02.329Z,98570.35
2024-04-06T07:02:07.765Z,98561.57
2024-04-06T07:04:38.865Z,98561.61
2024-04-06T07:07:10.586Z,98558.52
2024-04-06T07:09:42.282Z,98557.33
2024-04-06T07:12:13.324Z,98555.77
2024-04-06T07:14:44.620Z,98554.42
2024-04-06T07:17:17.306Z,98552.53
2024-04-06T07:19:48.531Z,98549.61
2024-04-06T07:22:20.076Z,98547.73
2024-04-06T07:24:51.130Z,98545.84
2024-04-06T07:27:22.462Z,98548.13
2024-04-06T07:29:54.178Z,98542.42
2024-04-06T07:32:25.282Z,98542.46
2024-04-06T07:34:56.462Z,98544.74
2024-04-06T07:37:27.591Z,98546.48
2024-04-06T07:39:59.202Z,98542.86
2024-04-06T07:42:30.579Z,98548.27
2024-04-06T07:45:01.965Z,98549.15
2024-04-06T07:47:33.120Z,98545.68
2024-04-06T07:50:04.470Z,98545.70
2024-04-06T07:52:35.732Z,98546.77
2024-04-06T07:55:08.090Z,98536.52
2024-04-06T07:57:39.758Z,98535.14
2024-04-06T08:00:12.730Z,98533.92
2024-04-06T08:02:44.929Z,98535.31
2024-04-06T08:05:16.066Z,98537.56
2024-04-06T08:07:47.173Z,98536.34
2024-04-06T08:10:20.398Z,98535.64
2024-04-06T08:12:54.770Z,98536.02
2024-04-06T08:15:27.507Z,98543.13
2024-04-06T08:18:00.180Z,98543.98
2024-04-06T08:20:31.486Z,98544.50
2024-04-06T08:23:03.350Z,98543.27
2024-04-06T08:25:34.179Z,98545.85
2024-04-06T08:28:06.483Z,98546.17
2024-04-06T08:30:37.539Z,98545.45
2024-04-06T08:33:09.286Z,98541.27
2024-04-06T08:35:40.393Z,98542.29
2024-04-06T08:38:11.625Z,98549.39
2024-04-06T08:40:44.126Z,98553.38
2024-04-06T08:43:15.357Z,98547.44
2024-04-06T08:45:47.130Z,98551.59
2024-04-06T08:48:21.152Z,98545.81
2024-04-06T08:50:53.632Z,98549.64
2024-04-06T08:53:24.996Z,98548.02
2024-04-06T08:55:57.952Z,98546.08
2024-04-06T08:58:29.639Z,98541.31
2024-04-06T09:01:01.770Z,98543.16
2024-04-06T09:03:33.448Z,98545.17
2024-04-06T09:06:05.379Z,98536.95
2024-04-06T09:08:40.439Z,98526.45
2024-04-06T09:11:13.431Z,98531.65
2024-04-06T09:13:44.561Z,98535.44
2024-04-06T09:16:17.554Z,98533.46
2024-04-06T09:18:48.606Z,98524.65
2024-04-06T09:21:20.737Z,98522.15
2024-04-06T09:23:54.875Z,98522.63
2024-04-06T09:26:29.012Z,98524.65
2024-04-06T09:29:00.983Z,98521.98
2024-04-06T09:31:32.491Z,98518.95
2024-04-06T09:34:03.781Z,98520.24
2024-04-06T09:36:41.305Z,98516.71
2024-04-06T09:39:13.861Z,98511.23
2024-04-06T09:41:44.922Z,98506.42
2024-04-06T09:44:16.200Z,98504.56
2024-04-06T09:46:48.163Z,98501.02
2024-04-06T09:49:20.606Z,98501.08
2024-04-06T09:51:51.583Z,98503.45
2024-04-06T09:54:23.116Z,98502.55
2024-04-06T09:56:55.268Z,98500.27
2024-04-06T09:59:29.285Z,98492.20
2024-04-06T10:02:00.609Z,98490.41
2024-04-06T10:04:37.467Z,98492.80
2024-04-06T10:07:08.892Z,98491.38
2024-04-06T10:09:39.891Z,98490.67
2024-04-06T10:12:12.596Z,98497.27
2024-04-06T10:14:49.397Z,98496.52
2024-04-06T10:17:19.351Z,98493.02
2024-04-06T10:19:51.624Z,98498.84
2024-04-06T10:22:28.102Z,98493.34
2024-04-06T10:25:04.503Z,98488.71
2024-04-06T10:27:41.115Z,98487.73
2024-04-06T10:30:13.040Z,98490.28
2024-04-06T10:32:45.284Z,98491.28
2024-04-06T10:35:16.755Z,98493.38
2024-04-06T10:37:48.721Z,98491.28
2024-04-06T10:40:21.015Z,98486.91
2024-04-06T10:42:52.558Z,98482.84
2024-04-06T10:45:24.329Z,98480.29
2024-04-06T10:47:55.478Z,98480.86
2024-04-06T10:50:26.629Z,98482.66
2024-04-06T10:52:59.260Z,98479.40
2024-04-06T10:55:32.938Z,98485.26
2024-04-06T10:58:04.169Z,98478.02
2024-04-06T11:00:37.813Z,98476.67
2024-04-06T11:03:09.911Z,98478.65
2024-04-06T11:05:41.524Z,98476.84
2024-04-06T11:08:13.056Z,98477.00
2024-04-06T11:10:44.360Z,98475.78
2024-04-06T11:13:15.676Z,98475.97
2024-04-06T11:15:48.529Z,98471.73
2024-04-06T11:18:19.661Z,98465.52
2024-04-06T11:20:51.152Z,98463.16
2024-04-06T11:23:22.980Z,98459.72
2024-04-06T11:25:55.347Z,98456.29
2024-04-06T11:28:26.754Z,98449.46
2024-04-06T11:30:59.510Z,98447.33
2024-04-06T11:33:30.800Z,98449.16
2024-04-06T11:36:01.948Z,98444.54
2024-04-06T11:38:33.189Z,98437.64
2024-04-06T11:41:04.610Z,98437.05
2024-04-06T11:43:36.083Z,98435.90
2024-04-06T11:46:07.559Z,98435.69
2024-04-06T11:48:38.807Z,98431.80
2024-04-06T11:51:09.940Z,98436.86
2024-04-06T11:53:43.840Z,98434.22
2024-04-06T11:56:18.520Z,98437.27
2024-04-06T11:58:51.412Z,98432.38
2024-04-06T12:01:22.600Z,98423.95
2024-04-06T12:03:53.871Z,98420.27
2024-04-06T12:06:25.366Z,98421.12
2024-04-06T12:08:56.777Z,98420.05
2024-04-06T12:11:28.775Z,98414.98
2024-04-06T12:14:00.167Z,98409.55
2024-04-06T12:16:31.311Z,98407.66
2024-04-06T12:19:02.843Z,98409.08
2024-04-06T12:21:34.025Z,98401.04
2024-04-06T12:24:05.650Z,98403.74
2024-04-06T12:26:37.142Z,98397.47
2024-04-06T12:29:10.318Z,98392.77
2024-04-06T12:31:42.135Z,98394.06
2024-04-06T12:34:13.321Z,98388.02
2024-04-06T12:36:44.699Z,98387.19
2024-04-06T12:39:15.914Z,98382.30
2024-04-06T12:41:47.365Z,98378.27
2024-04-06T12:44:18.643Z,98375.38
2024-04-06T12:46:49.809Z,98376.56
2024-04-06T12:49:21.253Z,98369.36
2024-04-06T12:51:52.780Z,98372.98
2024-04-06T12:54:23.902Z,98370.15
2024-04-06T12:57:09.196Z,98374.59
2024-04-06T12:59:40.895Z,98365.42
2024-04-06T13:02:12.652Z,98369.58
2024-04-06T13:04:43.736Z,98365.01
2024-04-06T13:07:14.897Z,98366.11
2024-04-06T13:09:54.928Z,98368.70
2024-04-06T13:12:31.402Z,98369.23
2024-04-06T13:15:05.936Z,98371.52
2024-04-06T13:17:37.816Z,98362.58
2024-04-06T13:20:20.192Z,98365.54
2024-04-06T13:22:51.220Z,98365.98
2024-04-06T13:25:22.468Z,98360.86
2024-04-06T13:27:54.103Z,98360.96
2024-04-06T13:30:26.153Z,98363.83
2024-04-06T13:32:58.011Z,98355.37
2024-04-06T13:35:28.935Z,98358.06
2024-04-06T13:37:59.958Z,98343.83
2024-04-06T13:40:30.807Z,98347.14
2024-04-06T13:43:01.737Z,98344.71
2024-04-06T13:45:32.815Z,98347.70
2024-04-06T13:48:14.401Z,98354.34
2024-04-06T13:50:47.100Z,98342.79
2024-04-06T13:53:18.548Z,98334.76
2024-04-06T13:55:49.619Z,98333.19
2024-04-06T13:58:21.225Z,98324.75
2024-04-06T14:00:52.174Z,98322.59
2024-04-06T14:03:23.221Z,98315.05
2024-04-06T14:05:54.209Z,98315.13
2024-04-06T14:08:26.939Z,98317.59
2024-04-06T14:10:57.699Z,98310.73
2024-04-06T14:13:32.095Z,98312.59
2024-04-06T14:16:05.390Z,98307.73
2024-04-06T14:18:37.768Z,98307.90
2024-04-06T14:21:08.674Z,98306.27
2024-04-06T14:23:40.580Z,98308.40
2024-04-06T14:26:12.730Z,98304.08
2024-04-06T14:28:43.867Z,98306.91
2024-04-06T14:31:17.934Z,98303.66
2024-04-06T14:33:50.170Z,98307.36
2024-04-06T14:36:21.214Z,98298.75
2024-04-06T14:38:52.249Z,98294.14
2024-04-06T14:41:23.536Z,98287.86
2024-04-06T14:43:54.613Z,98293.46
2024-04-06T14:46:26.123Z,98293.11
2024-04-06T14:48:57.114Z,98297.35
2024-04-06T14:51:28.307Z,98296.40
2024-04-06T14:53:59.499Z,98294.80
2024-04-06T14:56:30.365Z,98296.25
2024-04-06T14:59:01.260Z,98289.86
2024-04-06T15:01:32.245Z,98287.27
2024-04-06T15:04:03.727Z,98286.40
2024-04-06T15:06:34.696Z,98284.45
2024-04-06T15:09:08.475Z,98289.09
2024-04-06T15:11:39.483Z,98287.70
2024-04-06T15:14:10.833Z,98283.48
2024-04-06T15:16:41.833Z,98285.84
2024-04-06T15:19:13.180Z,98287.10
2024-04-06T15:21:44.069Z,98288.40
2024-04-06T15:24:16.049Z,98285.51
2024-04-06T15:26:47.490Z,98285.27
2024-04-06T15:29:18.457Z,98288.90
2024-04-06T15:31:49.424Z,98286.99
2024-04-06T15:34:20.597Z,98282.91
2024-04-06T15:36:51.574Z,98284.05
2024-04-06T15:39:27.784Z,98293.25
2024-04-06T15:41:59.400Z,98294.29
2024-04-06T15:44:30.369Z,98292.27
2024-04-06T15:47:08.348Z,98295.77
2024-04-06T15:49:39.292Z,98294.83
2024-04-06T15:52:11.227Z,98296.41
2024-04-06T15:54:42.084Z,98291.52
2024-04-06T15:57:13.040Z,98289.41
2024-04-06T15:59:43.941Z,98292.71
2024-04-06T16:02:15.020Z,98292.67
2024-04-06T16:04:46.451Z,98295.92
2024-04-06T16:07:17.436Z,98296.17
2024-04-06T16:09:48.508Z,98296.19
2024-04-06T16:12:19.584Z,98294.74
2024-04-06T16:14:50.634Z,98299.73
2024-04-06T16:17:21.746Z,98299.70
2024-04-06T16:19:52.932Z,98297.53
2024-04-06T16:22:24.378Z,98294.13
2024-04-06T16:24:55.614Z,98289.41
2024-04-06T16:27:26.680Z,98286.23
2024-04-06T16:29:57.708Z,98283.63
2024-04-06T16:32:28.681Z,98289.11
2024-04-06T16:35:00.246Z,98292.27
2024-04-06T16:37:32.058Z,98295.58
2024-04-06T16:40:05.624Z,98295.56
2024-04-06T16:42:36.648Z,98289.55
2024-04-06T16:45:09.468Z,98291.96
2024-04-06T16:47:40.649Z,98292.60
2024-04-06T16:50:11.915Z,98285.86
2024-04-06T16:52:42.981Z,98287.58
2024-04-06T16:55:14.400Z,98294.69
2024-04-06T16:57:45.983Z,98301.50
2024-04-06T17:00:18.798Z,98301.96
2024-04-06T17:02:49.878Z,98300.86
2024-04-06T17:05:22.376Z,98300.61
2024-04-06T17:07:53.527Z,98300.20
2024-04-06T17:10:25.011Z,98301.40
2024-04-06T17:12:57.172Z,98302.99
2024-04-06T17:15:28.763Z,98302.98
2024-04-06T17:17:59.907Z,98308.27
2024-04-06T17:20:31.433Z,98303.55
2024-04-06T17:23:02.756Z,98308.69
2024-04-06T17:25:33.790Z,98309.73
2024-04-06T17:28:06.041Z,98314.11
2024-04-06T17:30:38.016Z,98314.80
2024-04-06T17:33:09.212Z,98316.54
2024-04-06T17:35:40.052Z,98316.51
2024-04-06T17:38:11.057Z,98319.46
2024-04-06T17:40:42.431Z,98317.93
2024-04-06T17:43:14.064Z,98319.52
2024-04-06T17:45:44.936Z,98322.00
2024-04-06T17:48:16.387Z,98324.52
2024-04-06T17:53:40.546Z,98328.19
2024-04-06T17:56:11.574Z,98328.32
2024-04-06T17:58:42.539Z,98327.73
2024-04-06T18:01:13.611Z,98330.98
2024-04-06T18:03:44.653Z,98330.53
2024-04-06T18:06:15.761Z,98329.04
2024-04-06T18:08:47.654Z,98330.41
2024-04-06T18:11:19.166Z,98338.43
2024-04-06T18:13:50.566Z,98342.40
2024-04-06T18:16:22.862Z,98349.42
2024-04-06T18:18:53.983Z,98355.23
2024-04-06T18:21:25.223Z,98353.15
2024-04-06T18:23:57.238Z,98357.02
2024-04-06T18:26:28.507Z,98359.13
2024-04-06T18:28:59.871Z,98359.09
2024-04-06T18:31:30.888Z,98361.17
2024-04-06T18:34:01.992Z,98359.16
2024-04-06T18:36:33.348Z,98363.45
2024-04-06T18:39:04.857Z,98365.83
2024-04-06T18:41:36.418Z,98368.86
2024-04-06T18:44:07.931Z,98369.45
2024-04-06T18:46:39.319Z,98373.01
2024-04-06T18:49:10.757Z,98376.17
2024-04-06T18:51:42.348Z,98377.92
2024-04-06T18:54:23.482Z,98384.50
2024-04-06T18:56:59.144Z,98387.60
2024-04-06T18:59:30.384Z,98388.26
2024-04-06T19:02:01.458Z,98384.71
2024-04-06T19:04:32.523Z,98391.11
2024-04-06T19:07:04.156Z,98386.69
2024-04-06T19:09:35.684Z,98389.91
2024-04-06T19:12:08.510Z,98392.98
2024-04-06T19:14:40.181Z,98397.42
2024-04-06T19:17:11.454Z,98402.56
2024-04-06T19:19:43.476Z,98401.98
2024-04-06T19:22:14.977Z,98399.30
2024-04-06T19:24:46.578Z,98401.14
2024-04-06T19:27:17.476Z,98404.17
2024-04-06T19:29:49.107Z,98406.14
2024-04-06T19:32:20.370Z,98406.95
2024-04-06T19:34:52.301Z,98400.73
2024-04-06T19:37:24.571Z,98403.60
2024-04-06T19:39:56.367Z,98412.87
2024-04-06T19:42:27.786Z,98410.98
2024-04-06T19:44:58.714Z,98407.06
2024-04-06T19:47:29.600Z,98409.20
2024-04-06T19:50:00.923Z,98408.00
2024-04-06T19:52:32.526Z,98408.73
2024-04-06T19:55:07.357Z,98408.41
2024-04-06T19:57:39.814Z,98403.60
2024-04-06T20:00:12.388Z,98405.88
2024-04-06T20:02:44.364Z,98410.09
2024-04-06T20:05:16.755Z,98408.70
2024-04-06T20:07:47.750Z,98405.94
2024-04-06T20:10:19.488Z,98407.70
2024-04-06T20:12:50.608Z,98407.53
2024-04-06T20:15:21.677Z,98408.93
2024-04-06T20:17:53.253Z,98412.06
2024-04-06T20:20:25.680Z,98405.82
2024-04-06T20:23:11.185Z,98404.61
2024-04-06T20:25:56.638Z,98400.11
2024-04-06T20:28:27.894Z,98406.36
2024-04-06T20:31:00.636Z,98406.38
2024-04-06T20:33:33.080Z,98413.66
2024-04-06T20:36:05.525Z,98413.84
2024-04-06T20:38:37.497Z,98419.56
2024-04-06T20:41:09.373Z,98418.70
2024-04-06T20:43:40.360Z,98418.69
2024-04-06T20:46:11.934Z,98414.88
2024-04-06T20:48:43.097Z,98416.42
2024-04-06T20:51:14.760Z,98419.54
2024-04-06T20:53:46.051Z,98421.94
2024-04-06T20:56:19.289Z,98422.44
2024-04-06T20:58:50.118Z,98417.40
2024-04-06T21:01:21.449Z,98411.68
2024-04-06T21:03:52.963Z,98410.97
2024-04-06T21:06:24.291Z,98411.30
2024-04-06T21:08:55.762Z,98408.86
2024-04-06T21:11:28.595Z,98406.77
2024-04-06T21:13:59.496Z,98409.34
2024-04-06T21:16:31.329Z,98411.25
2024-04-06T21:19:02.565Z,98409.67
2024-04-06T21:21:34.049Z,98408.45
2024-04-06T21:24:05.213Z,98408.27
2024-04-06T21:26:39.566Z,98407.21
2024-04-06T21:29:10.644Z,98401.48
2024-04-06T21:31:42.049Z,98404.39
2024-04-06T21:34:13.610Z,98399.19
2024-04-06T21:36:44.803Z,98400.91
2024-04-06T21:39:16.650Z,98404.18
2024-04-06T21:41:49.654Z,98399.12
2024-04-06T21:44:20.713Z,98395.96
2024-04-06T21:46:51.597Z,98393.35
2024-04-06T21:49:22.389Z,98390.40
2024-04-06T21:51:52.828Z,98385.02
2024-04-06T21:54:25.239Z,98385.66
2024-04-06T21:56:56.105Z,98385.45
2024-04-06T21:59:27.135Z,98386.45
2024-04-06T22:01:59.341Z,98386.23
2024-04-06T22:04:31.657Z,98381.02
2024-04-06T22:07:03.139Z,98380.48
2024-04-06T22:09:34.590Z,98377.84
2024-04-06T22:12:08.183Z,98380.23
2024-04-06T22:14:39.166Z,98372.29
2024-04-06T22:17:10.552Z,98371.76
2024-04-06T22:19:41.972Z,98371.39
2024-04-06T22:22:13.602Z,98368.96
2024-04-06T22:24:45.766Z,98367.57
2024-04-06T22:27:16.814Z,98365.84
2024-04-06T22:29:49.180Z,98364.61
2024-04-06T22:32:20.717Z,98365.11
2024-04-06T22:34:52.000Z,98365.98
2024-04-06T22:37:23.235Z,98367.52
2024-04-06T22:39:54.116Z,98363.35
2024-04-06T22:42:24.042Z,98362.08
2024-04-06T22:44:54.943Z,98361.34
2024-04-06T22:47:26.183Z,98362.83
2024-04-06T22:49:57.508Z,98356.92
2024-04-06T22:52:28.449Z,98360.87
2024-04-06T22:54:59.874Z,98359.81
2024-04-06T22:57:30.804Z,98357.70
2024-04-06T23:00:02.237Z,98354.56
2024-04-06T23:02:35.252Z,98356.29
2024-04-06T23:05:07.371Z,98354.19
2024-04-06T23:07:39.080Z,98354.87
2024-04-06T23:10:10.844Z,98354.70
2024-04-06T23:12:41.947Z,98354.50
2024-04-06T23:15:13.095Z,98350.34
2024-04-06T23:17:43.946Z,98349.27
2024-04-06T23:20:14.996Z,98347.88
2024-04-06T23:22:46.176Z,98346.66
2024-04-06T23:25:17.447Z,98342.67
2024-04-06T23:27:48.431Z,98344.39
2024-04-06T23:30:19.419Z,98341.25
2024-04-06T23:32:50.321Z,98340.03
2024-04-06T23:35:21.345Z,98336.55
2024-04-06T23:37:52.231Z,98327.90
2024-04-06T23:40:24.496Z,98318.55
2024-04-06T23:42:55.534Z,98314.05
2024-04-06T23:45:26.936Z,98318.80
2024-04-06T23:47:58.178Z,98315.81
2024-04-06T23:50:29.459Z,98309.73
2024-04-06T23:53:00.471Z,98309.17
2024-04-06T23:55:31.548Z,98301.02
2024-04-06T23:58:02.755Z,98296.98
